createdAt,value
2018-11-23T00:00:28.259Z,4.80
2018-11-23T00:02:58.166Z,4.80
2018-11-23T00:05:27.166Z,4.80
2018-11-23T00:07:56.906Z,4.80
2018-11-23T00:10:27.268Z,4.90
2018-11-23T00:12:56.370Z,4.90
2018-11-23T00:15:25.784Z,4.90
2018-11-23T00:17:54.949Z,4.90
2018-11-23T00:20:25.281Z,4.80
2018-11-23T00:22:54.448Z,4.80
2018-11-23T00:25:24.819Z,4.80
2018-11-23T00:27:54.302Z,4.90
2018-11-23T00:30:25.587Z,4.80
2018-11-23T00:32:54.858Z,4.90
2018-11-23T00:35:25.095Z,4.90
2018-11-23T00:37:54.708Z,4.90
2018-11-23T00:40:25.091Z,4.90
2018-11-23T00:42:54.383Z,4.90
2018-11-23T00:45:23.678Z,4.90
2018-11-23T00:47:53.465Z,4.90
2018-11-23T00:50:23.355Z,4.90
2018-11-23T00:52:53.177Z,5.00
2018-11-23T00:55:23.092Z,5.00
2018-11-23T00:57:52.165Z,4.90
2018-11-23T01:00:24.796Z,5.00
2018-11-23T01:02:54.144Z,5.00
2018-11-23T01:05:23.271Z,5.00
2018-11-23T01:07:52.300Z,4.90
2018-11-23T01:10:22.493Z,5.00
2018-11-23T01:12:52.694Z,4.90
2018-11-23T01:15:21.770Z,5.00
2018-11-23T01:17:50.847Z,5.00
2018-11-23T01:20:21.235Z,5.00
2018-11-23T01:22:50.639Z,5.00
2018-11-23T01:25:20.734Z,5.00
2018-11-23T01:27:50.986Z,5.00
2018-11-23T01:30:21.887Z,5.00
2018-11-23T01:32:50.959Z,5.00
2018-11-23T01:35:20.053Z,5.00
2018-11-23T01:37:49.372Z,5.00
2018-11-23T01:40:20.580Z,5.00
2018-11-23T01:42:49.603Z,5.00
2018-11-23T01:45:18.671Z,5.00
2018-11-23T01:47:47.739Z,5.00
2018-11-23T01:50:25.246Z,5.00
2018-11-23T01:52:54.365Z,5.00
2018-11-23T01:55:23.909Z,5.00
2018-11-23T01:57:52.916Z,5.00
2018-11-23T02:00:23.291Z,5.00
2018-11-23T02:02:53.164Z,5.00
2018-11-23T02:05:22.608Z,4.90
2018-11-23T02:07:51.802Z,5.00
2018-11-23T02:10:21.050Z,4.90
2018-11-23T02:12:50.194Z,4.90
2018-11-23T02:15:21.012Z,4.90
2018-11-23T02:17:50.594Z,4.90
2018-11-23T02:20:20.353Z,4.90
2018-11-23T02:22:49.477Z,4.90
2018-11-23T02:25:18.556Z,4.90
2018-11-23T02:27:47.563Z,4.90
2018-11-23T02:30:21.545Z,4.90
2018-11-23T02:32:50.655Z,4.90
2018-11-23T02:35:19.636Z,4.90
2018-11-23T02:37:48.731Z,4.90
2018-11-23T02:40:18.996Z,4.80
2018-11-23T02:42:48.027Z,4.80
2018-11-23T02:45:21.445Z,4.80
2018-11-23T02:47:50.698Z,4.90
2018-11-23T02:50:19.757Z,4.90
2018-11-23T02:52:49.046Z,4.80
2018-11-23T02:55:19.003Z,4.80
2018-11-23T02:57:48.041Z,4.80
2018-11-23T03:00:18.723Z,4.90
2018-11-23T03:02:47.755Z,4.80
2018-11-23T03:05:18.308Z,4.80
2018-11-23T03:07:47.389Z,4.80
2018-11-23T03:10:16.865Z,4.90
2018-11-23T03:12:46.457Z,4.90
2018-11-23T03:15:17.124Z,4.90
2018-11-23T03:17:46.601Z,4.90
2018-11-23T03:20:16.815Z,4.90
2018-11-23T03:22:45.966Z,4.90
2018-11-23T03:25:15.356Z,4.90
2018-11-23T03:27:44.447Z,4.90
2018-11-23T03:30:20.663Z,4.90
2018-11-23T03:32:50.373Z,4.90
2018-11-23T03:35:20.059Z,4.90
2018-11-23T03:37:49.366Z,4.90
2018-11-23T03:40:18.458Z,4.90
2018-11-23T03:42:47.331Z,5.00
2018-11-23T03:45:16.848Z,5.00
2018-11-23T03:47:46.076Z,5.00
2018-11-23T03:50:15.903Z,5.00
2018-11-23T03:52:45.221Z,5.00
2018-11-23T03:55:14.451Z,5.00
2018-11-23T03:57:43.564Z,5.00
2018-11-23T04:00:17.593Z,5.00
2018-11-23T04:02:45.984Z,5.00
2018-11-23T04:05:15.037Z,5.00
2018-11-23T04:07:44.256Z,5.10
2018-11-23T04:10:14.309Z,5.10
2018-11-23T04:12:43.798Z,5.10
2018-11-23T04:15:13.342Z,5.00
2018-11-23T04:17:42.511Z,5.00
2018-11-23T04:20:14.874Z,5.10
2018-11-23T04:22:44.221Z,5.10
2018-11-23T04:25:13.836Z,5.10
2018-11-23T04:27:43.389Z,5.10
2018-11-23T04:30:14.358Z,5.10
2018-11-23T04:32:43.862Z,5.10
2018-11-23T04:35:14.887Z,5.10
2018-11-23T04:37:44.371Z,5.10
2018-11-23T04:40:14.222Z,5.20
2018-11-23T04:42:43.407Z,5.20
2018-11-23T04:45:12.968Z,5.20
2018-11-23T04:47:41.943Z,5.20
2018-11-23T04:50:12.870Z,5.10
2018-11-23T04:52:41.883Z,5.20
2018-11-23T04:55:11.050Z,5.20
2018-11-23T04:57:39.960Z,5.20
2018-11-23T05:00:11.067Z,5.20
2018-11-23T05:02:40.050Z,5.20
2018-11-23T05:05:10.238Z,5.20
2018-11-23T05:07:39.122Z,5.20
2018-11-23T05:10:10.008Z,5.20
2018-11-23T05:12:39.275Z,5.20
2018-11-23T05:15:09.291Z,5.20
2018-11-23T05:17:38.196Z,5.20
2018-11-23T05:20:07.848Z,5.20
2018-11-23T05:22:37.305Z,5.20
2018-11-23T05:25:06.878Z,5.20
2018-11-23T05:27:35.979Z,5.20
2018-11-23T05:30:06.922Z,5.20
2018-11-23T05:32:35.999Z,5.30
2018-11-23T05:35:05.175Z,5.20
2018-11-23T05:37:34.104Z,5.20
2018-11-23T05:40:03.094Z,5.20
2018-11-23T05:42:32.182Z,5.30
2018-11-23T05:45:01.198Z,5.30
2018-11-23T05:47:30.278Z,5.30
2018-11-23T05:49:59.410Z,5.30
2018-11-23T05:52:28.384Z,5.30
2018-11-23T05:54:57.482Z,5.30
2018-11-23T05:57:26.572Z,5.30
2018-11-23T05:59:55.670Z,5.30
2018-11-23T06:02:24.593Z,5.30
2018-11-23T06:04:53.528Z,5.30
2018-11-23T06:07:22.725Z,5.30
2018-11-23T06:09:51.642Z,5.30
2018-11-23T06:12:20.841Z,5.30
2018-11-23T06:14:49.936Z,5.30
2018-11-23T06:17:19.047Z,5.40
2018-11-23T06:19:48.119Z,5.40
2018-11-23T06:22:17.130Z,5.40
2018-11-23T06:24:46.103Z,5.40
2018-11-23T06:27:15.243Z,5.40
2018-11-23T06:29:44.295Z,5.40
2018-11-23T06:32:24.038Z,5.40
2018-11-23T06:34:53.183Z,5.40
2018-11-23T06:37:22.268Z,5.40
2018-11-23T06:39:51.388Z,5.40
2018-11-23T06:42:20.732Z,5.40
2018-11-23T06:44:49.733Z,5.40
2018-11-23T06:47:18.828Z,5.50
2018-11-23T06:49:47.908Z,5.50
2018-11-23T06:52:17.021Z,5.50
2018-11-23T06:54:46.001Z,5.50
2018-11-23T06:57:15.141Z,5.50
2018-11-23T06:59:44.327Z,5.50
2018-11-23T07:02:13.525Z,5.50
2018-11-23T07:04:42.504Z,5.50
2018-11-23T07:07:11.601Z,5.50
2018-11-23T07:09:40.703Z,5.50
2018-11-23T07:12:09.700Z,5.50
2018-11-23T07:14:38.889Z,5.60
2018-11-23T07:17:08.034Z,5.60
2018-11-23T07:19:37.067Z,5.60
2018-11-23T07:22:06.072Z,5.60
2018-11-23T07:24:35.280Z,5.60
2018-11-23T07:27:04.487Z,5.60
2018-11-23T07:29:33.563Z,5.60
2018-11-23T07:32:02.668Z,5.60
2018-11-23T07:34:31.736Z,5.70
2018-11-23T07:37:00.962Z,5.70
2018-11-23T07:39:41.010Z,5.70
2018-11-23T07:42:18.762Z,5.70
2018-11-23T07:44:47.666Z,5.70
2018-11-23T07:47:16.467Z,5.70
2018-11-23T07:49:45.957Z,5.70
2018-11-23T07:52:15.217Z,5.80
2018-11-23T07:54:44.289Z,5.80
2018-11-23T07:57:13.260Z,5.80
2018-11-23T07:59:42.271Z,5.80
2018-11-23T08:02:12.431Z,5.80
2018-11-23T08:04:42.190Z,5.80
2018-11-23T08:07:11.744Z,5.90
2018-11-23T08:09:41.422Z,5.90
2018-11-23T08:12:10.616Z,5.90
2018-11-23T08:14:39.819Z,5.90
2018-11-23T08:17:08.929Z,5.90
2018-11-23T08:19:37.980Z,6.00
2018-11-23T08:22:07.067Z,6.00
2018-11-23T08:24:36.254Z,6.00
2018-11-23T08:27:05.267Z,6.10
2018-11-23T08:29:34.276Z,6.10
2018-11-23T08:32:03.402Z,6.10
2018-11-23T08:34:32.587Z,6.10
2018-11-23T08:37:01.483Z,6.20
2018-11-23T08:39:30.559Z,6.20
2018-11-23T08:41:59.664Z,6.20
2018-11-23T08:44:28.651Z,6.20
2018-11-23T08:46:57.753Z,6.20
2018-11-23T08:49:26.968Z,6.20
2018-11-23T08:51:56.142Z,6.30
2018-11-23T08:54:25.332Z,6.20
2018-11-23T08:56:54.451Z,6.30
2018-11-23T08:59:23.544Z,6.30
2018-11-23T09:01:52.696Z,6.30
2018-11-23T09:04:21.833Z,6.30
2018-11-23T09:06:50.825Z,6.40
2018-11-23T09:09:20.114Z,6.40
2018-11-23T09:11:50.230Z,6.40
2018-11-23T09:14:19.480Z,6.40
2018-11-23T09:16:48.642Z,6.40
2018-11-23T09:19:17.842Z,6.40
2018-11-23T09:21:46.775Z,6.50
2018-11-23T09:24:15.777Z,6.40
2018-11-23T09:26:44.841Z,6.40
2018-11-23T09:29:13.978Z,6.50
2018-11-23T09:31:43.012Z,6.50
2018-11-23T09:34:12.118Z,6.50
2018-11-23T09:36:41.198Z,6.50
2018-11-23T09:39:10.296Z,6.50
2018-11-23T09:41:39.419Z,6.50
2018-11-23T09:44:08.790Z,6.50
2018-11-23T09:46:37.996Z,6.50
2018-11-23T09:49:07.423Z,6.50
2018-11-23T09:51:36.608Z,6.60
2018-11-23T09:54:05.732Z,6.60
2018-11-23T09:56:34.678Z,6.60
2018-11-23T09:59:03.852Z,6.60
2018-11-23T10:01:32.889Z,6.60
2018-11-23T10:04:02.064Z,6.60
2018-11-23T10:06:31.341Z,6.70
2018-11-23T10:09:00.823Z,6.70
2018-11-23T10:11:29.887Z,6.70
2018-11-23T10:13:59.075Z,6.70
2018-11-23T10:16:28.076Z,6.70
2018-11-23T10:18:57.275Z,6.80
2018-11-23T10:21:26.258Z,6.80
2018-11-23T10:23:55.540Z,6.80
2018-11-23T10:26:24.764Z,6.80
2018-11-23T10:28:53.997Z,6.80
2018-11-23T10:31:23.051Z,6.90
2018-11-23T10:33:52.787Z,6.90
2018-11-23T10:36:21.948Z,6.90
2018-11-23T10:38:51.078Z,6.90
2018-11-23T10:41:20.080Z,7.00
2018-11-23T10:43:49.127Z,7.00
2018-11-23T10:46:18.144Z,7.10
2018-11-23T10:48:47.242Z,7.10
2018-11-23T10:51:16.434Z,7.10
2018-11-23T10:56:14.675Z,7.10
2018-11-23T10:58:43.840Z,7.10
2018-11-23T11:01:18.062Z,7.10
2018-11-23T11:03:52.175Z,7.20
2018-11-23T11:06:26.468Z,7.20
2018-11-23T11:08:55.596Z,7.20
2018-11-23T11:11:24.674Z,7.30
2018-11-23T11:13:53.927Z,7.30
2018-11-23T11:16:22.919Z,7.30
2018-11-23T11:18:52.199Z,7.30
2018-11-23T11:21:21.145Z,7.30
2018-11-23T11:23:50.255Z,7.30
2018-11-23T11:26:19.262Z,7.40
2018-11-23T11:28:48.430Z,7.40
2018-11-23T11:31:17.623Z,7.40
2018-11-23T11:33:46.738Z,7.40
2018-11-23T11:36:15.730Z,7.40
2018-11-23T11:38:46.307Z,7.40
2018-11-23T11:41:14.917Z,7.40
2018-11-23T11:43:44.124Z,7.40
2018-11-23T11:46:13.507Z,7.50
2018-11-23T11:48:42.423Z,7.40
2018-11-23T11:51:11.521Z,7.50
2018-11-23T11:53:40.639Z,7.50
2018-11-23T11:56:09.930Z,7.50
2018-11-23T11:58:39.029Z,7.50
2018-11-23T12:01:08.271Z,7.50
2018-11-23T12:03:37.320Z,7.50
2018-11-23T12:06:06.591Z,7.50
2018-11-23T12:08:35.557Z,7.50
2018-11-23T12:11:04.607Z,7.50
2018-11-23T12:13:33.695Z,7.50
2018-11-23T12:16:02.617Z,7.50
2018-11-23T12:18:31.555Z,7.50
2018-11-23T12:21:00.693Z,7.50
2018-11-23T12:23:29.851Z,7.50
2018-11-23T12:25:59.200Z,7.50
2018-11-23T12:28:28.294Z,7.50
2018-11-23T12:30:57.385Z,7.50
2018-11-23T12:33:26.468Z,7.50
2018-11-23T12:35:55.537Z,7.60
2018-11-23T12:38:24.628Z,7.60
2018-11-23T12:40:53.631Z,7.60
2018-11-23T12:43:22.744Z,7.60
2018-11-23T12:45:51.858Z,7.60
2018-11-23T12:48:20.939Z,7.60
2018-11-23T12:50:50.688Z,7.60
2018-11-23T12:53:19.028Z,7.60
2018-11-23T12:55:48.107Z,7.70
2018-11-23T12:58:17.090Z,7.70
2018-11-23T13:00:46.201Z,7.70
2018-11-23T13:03:15.196Z,7.70
2018-11-23T13:05:44.201Z,7.70
2018-11-23T13:08:13.501Z,7.70
2018-11-23T13:10:43.112Z,7.70
2018-11-23T13:13:11.666Z,7.70
2018-11-23T13:15:40.863Z,7.70
2018-11-23T13:18:09.918Z,7.70
2018-11-23T13:20:38.971Z,7.80
2018-11-23T13:23:08.071Z,7.80
2018-11-23T13:25:37.209Z,7.80
2018-11-23T13:28:06.364Z,7.80
2018-11-23T13:30:36.571Z,7.80
2018-11-23T13:33:05.808Z,7.80
2018-11-23T13:35:34.880Z,7.80
2018-11-23T13:38:04.184Z,7.80
2018-11-23T13:40:33.392Z,7.80
2018-11-23T13:43:02.484Z,7.80
2018-11-23T13:45:33.020Z,7.90
2018-11-23T13:48:02.116Z,7.80
2018-11-23T13:50:31.328Z,7.90
2018-11-23T13:53:01.577Z,7.90
2018-11-23T13:55:30.636Z,7.90
2018-11-23T13:57:59.708Z,7.90
2018-11-23T14:00:29.932Z,7.90
2018-11-23T14:02:59.082Z,7.90
2018-11-23T14:05:29.620Z,7.90
2018-11-23T14:07:59.814Z,7.90
2018-11-23T14:10:29.466Z,7.90
2018-11-23T14:12:58.683Z,7.90
2018-11-23T14:15:30.160Z,7.90
2018-11-23T14:18:00.035Z,7.90
2018-11-23T14:20:29.441Z,7.90
2018-11-23T14:22:58.681Z,7.90
2018-11-23T14:25:29.123Z,7.90
2018-11-23T14:27:58.494Z,7.90
2018-11-23T14:30:28.992Z,7.90
2018-11-23T14:32:58.172Z,7.90
2018-11-23T14:35:28.403Z,7.90
2018-11-23T14:37:58.115Z,7.90
2018-11-23T14:40:27.248Z,7.90
2018-11-23T14:42:56.715Z,7.90
2018-11-23T14:45:29.630Z,7.90
2018-11-23T14:47:59.938Z,7.90
2018-11-23T14:50:30.475Z,7.90
2018-11-23T14:53:00.165Z,7.90
2018-11-23T14:55:29.659Z,7.90
2018-11-23T14:57:59.231Z,7.90
2018-11-23T15:00:30.590Z,7.90
2018-11-23T15:03:00.882Z,7.90
2018-11-23T15:05:29.967Z,7.80
2018-11-23T15:07:58.963Z,7.80
2018-11-23T15:10:29.258Z,7.80
2018-11-23T15:12:59.816Z,7.80
2018-11-23T15:15:30.195Z,7.90
2018-11-23T15:17:59.888Z,7.90
2018-11-23T15:20:33.151Z,7.90
2018-11-23T15:23:10.283Z,7.90
2018-11-23T15:25:39.474Z,7.90
2018-11-23T15:28:09.989Z,7.90
2018-11-23T15:30:39.812Z,7.90
2018-11-23T15:33:10.144Z,7.90
2018-11-23T15:35:40.334Z,7.90
2018-11-23T15:38:12.390Z,7.90
2018-11-23T15:40:41.529Z,7.90
2018-11-23T15:43:12.163Z,7.90
2018-11-23T15:45:41.181Z,7.80
2018-11-23T15:48:10.756Z,7.80
2018-11-23T15:50:40.689Z,7.80
2018-11-23T15:53:11.049Z,7.80
2018-11-23T15:55:40.548Z,7.80
2018-11-23T15:58:12.330Z,7.80
2018-11-23T16:00:42.592Z,7.80
2018-11-23T16:03:12.712Z,7.80
2018-11-23T16:05:41.806Z,7.80
2018-11-23T16:08:12.375Z,7.80
2018-11-23T16:10:41.579Z,7.70
2018-11-23T16:13:11.685Z,7.70
2018-11-23T16:15:40.652Z,7.70
2018-11-23T16:18:10.147Z,7.70
2018-11-23T16:20:40.887Z,7.70
2018-11-23T16:23:12.111Z,7.70
2018-11-23T16:25:41.506Z,7.70
2018-11-23T16:28:11.159Z,7.70
2018-11-23T16:30:41.679Z,7.60
2018-11-23T16:33:13.011Z,7.60
2018-11-23T16:35:42.623Z,7.60
2018-11-23T16:38:14.032Z,7.60
2018-11-23T16:40:44.705Z,7.60
2018-11-23T16:43:14.316Z,7.60
2018-11-23T16:45:43.920Z,7.70
2018-11-23T16:48:13.850Z,7.60
2018-11-23T16:50:43.136Z,7.60
2018-11-23T16:53:12.280Z,7.60
2018-11-23T16:55:41.390Z,7.70
2018-11-23T16:58:11.763Z,7.70
2018-11-23T17:00:43.062Z,7.70
2018-11-23T17:03:13.730Z,7.60
2018-11-23T17:05:44.378Z,7.60
2018-11-23T17:08:13.424Z,7.60
2018-11-23T17:10:42.739Z,7.60
2018-11-23T17:13:11.934Z,7.60
2018-11-23T17:15:41.048Z,7.60
2018-11-23T17:18:10.445Z,7.60
2018-11-23T17:20:40.064Z,7.60
2018-11-23T17:23:10.118Z,7.60
2018-11-23T17:25:39.254Z,7.60
2018-11-23T17:28:09.660Z,7.60
2018-11-23T17:30:38.938Z,7.70
2018-11-23T17:33:07.909Z,7.70
2018-11-23T17:35:36.841Z,7.70
2018-11-23T17:38:06.067Z,7.70
2018-11-23T17:40:36.995Z,7.70
2018-11-23T17:43:06.314Z,7.70
2018-11-23T17:45:35.554Z,7.70
2018-11-23T17:48:04.739Z,7.70
2018-11-23T17:50:35.083Z,7.70
2018-11-23T17:53:04.218Z,7.70
2018-11-23T17:55:33.428Z,7.80
2018-11-23T17:58:02.499Z,7.70
2018-11-23T18:00:38.951Z,7.80
2018-11-23T18:03:02.787Z,7.90
2018-11-23T18:05:32.730Z,7.90
2018-11-23T18:08:02.513Z,7.90
2018-11-23T18:10:32.789Z,7.90
2018-11-23T18:13:02.250Z,7.80
2018-11-23T18:15:32.744Z,7.80
2018-11-23T18:18:02.791Z,7.80
2018-11-23T18:20:32.458Z,7.90
2018-11-23T18:23:02.283Z,7.90
2018-11-23T18:25:40.319Z,7.90
2018-11-23T18:28:09.255Z,7.90
2018-11-23T18:30:38.221Z,7.90
2018-11-23T18:33:08.341Z,7.90
2018-11-23T18:35:37.465Z,7.90
2018-11-23T18:38:06.485Z,7.90
2018-11-23T18:40:37.447Z,7.90
2018-11-23T18:43:05.000Z,7.90
2018-11-23T18:45:34.101Z,7.90
2018-11-23T18:48:03.451Z,7.90
2018-11-23T18:50:32.705Z,7.90
2018-11-23T18:53:01.908Z,7.90
2018-11-23T18:55:30.884Z,7.90
2018-11-23T18:58:00.024Z,7.90
2018-11-23T19:00:29.067Z,7.90
2018-11-23T19:02:58.127Z,7.90
2018-11-23T19:05:27.828Z,7.90
2018-11-23T19:07:57.053Z,7.90
2018-11-23T19:10:26.154Z,7.90
2018-11-23T19:12:55.144Z,7.90
2018-11-23T19:15:25.565Z,7.90
2018-11-23T19:17:53.759Z,7.90
2018-11-23T19:20:23.434Z,7.90
2018-11-23T19:22:53.811Z,7.90
2018-11-23T19:25:23.056Z,7.90
2018-11-23T19:27:52.398Z,7.90
2018-11-23T19:30:28.161Z,7.90
2018-11-23T19:32:52.563Z,7.80
2018-11-23T19:35:21.751Z,7.80
2018-11-23T19:37:50.855Z,7.80
2018-11-23T19:40:19.940Z,7.80
2018-11-23T19:42:49.370Z,7.80
2018-11-23T19:45:18.503Z,7.80
2018-11-23T19:47:47.718Z,7.80
2018-11-23T19:50:17.708Z,7.80
2018-11-23T19:52:46.858Z,7.70
2018-11-23T19:55:17.406Z,7.80
2018-11-23T19:57:46.478Z,7.80
2018-11-23T20:00:19.741Z,7.80
2018-11-23T20:02:48.972Z,7.80
2018-11-23T20:05:18.092Z,7.80
2018-11-23T20:07:48.091Z,7.80
2018-11-23T20:10:18.393Z,7.80
2018-11-23T20:12:48.493Z,7.90
2018-11-23T20:15:18.525Z,7.90
2018-11-23T20:17:47.868Z,7.90
2018-11-23T20:20:17.414Z,7.90
2018-11-23T20:22:47.254Z,7.90
2018-11-23T20:25:17.299Z,7.90
2018-11-23T20:27:47.000Z,7.90
2018-11-23T20:30:17.923Z,7.90
2018-11-23T20:32:47.002Z,8.00
2018-11-23T20:35:18.713Z,8.00
2018-11-23T20:37:47.978Z,8.00
2018-11-23T20:40:18.185Z,8.00
2018-11-23T20:42:47.414Z,8.00
2018-11-23T20:45:16.697Z,8.00
2018-11-23T20:47:45.903Z,8.00
2018-11-23T20:50:15.962Z,8.00
2018-11-23T20:52:45.002Z,8.00
2018-11-23T20:55:18.968Z,8.00
2018-11-23T20:57:48.117Z,8.00
2018-11-23T21:00:18.117Z,8.00
2018-11-23T21:02:48.127Z,8.00
2018-11-23T21:05:18.054Z,8.00
2018-11-23T21:07:47.397Z,8.00
2018-11-23T21:10:20.835Z,8.00
2018-11-23T21:12:49.884Z,8.00
2018-11-23T21:15:23.955Z,8.00
2018-11-23T21:17:53.182Z,8.10
2018-11-23T21:20:22.357Z,8.10
2018-11-23T21:22:51.376Z,8.10
2018-11-23T21:25:20.651Z,8.10
2018-11-23T21:27:49.965Z,8.10
2018-11-23T21:30:19.985Z,8.10
2018-11-23T21:32:49.218Z,8.10
2018-11-23T21:35:18.505Z,8.10
2018-11-23T21:37:47.692Z,8.10
2018-11-23T21:40:17.131Z,8.10
2018-11-23T21:42:46.368Z,8.10
2018-11-23T21:45:16.678Z,8.10
2018-11-23T21:47:45.713Z,8.10
2018-11-23T21:50:16.693Z,8.10
2018-11-23T21:52:45.856Z,8.10
2018-11-23T21:55:17.094Z,8.10
2018-11-23T21:57:46.302Z,8.10
2018-11-23T22:00:15.996Z,8.10
2018-11-23T22:02:44.974Z,8.10
2018-11-23T22:05:14.199Z,8.10
2018-11-23T22:07:43.264Z,8.10
2018-11-23T22:10:17.923Z,8.10
2018-11-23T22:12:47.228Z,8.10
2018-11-23T22:15:18.139Z,8.10
2018-11-23T22:17:47.766Z,8.10
2018-11-23T22:20:17.736Z,8.10
2018-11-23T22:22:47.078Z,8.10
2018-11-23T22:25:17.081Z,8.10
2018-11-23T22:27:46.392Z,8.10
2018-11-23T22:30:18.229Z,8.10
2018-11-23T22:32:47.318Z,8.10
2018-11-23T22:35:16.418Z,8.10
2018-11-23T22:37:45.420Z,8.10
2018-11-23T22:40:15.424Z,8.10
2018-11-23T22:42:46.476Z,8.10
2018-11-23T22:45:16.266Z,8.10
2018-11-23T22:47:45.500Z,8.10
2018-11-23T22:50:16.838Z,8.10
2018-11-23T22:52:46.059Z,8.10
2018-11-23T22:55:15.725Z,8.10
2018-11-23T22:57:44.934Z,8.00
2018-11-23T23:01:29.030Z,8.00
2018-11-23T23:03:58.084Z,8.00
2018-11-23T23:06:27.163Z,8.00
2018-11-23T23:08:56.172Z,8.00
2018-11-23T23:11:25.093Z,8.00
2018-11-23T23:13:54.160Z,8.00
2018-11-23T23:16:23.125Z,8.00
2018-11-23T23:18:52.267Z,8.00
2018-11-23T23:21:21.472Z,8.00
2018-11-23T23:23:50.689Z,8.00
2018-11-23T23:26:19.765Z,8.00
2018-11-23T23:28:49.043Z,8.00
2018-11-23T23:31:18.276Z,8.10
2018-11-23T23:33:48.385Z,8.10
2018-11-23T23:36:17.400Z,8.10
2018-11-23T23:38:46.566Z,8.10
2018-11-23T23:41:15.884Z,8.10
2018-11-23T23:43:44.934Z,8.10
2018-11-23T23:46:13.867Z,8.10
2018-11-23T23:48:42.977Z,8.10
2018-11-23T23:51:11.936Z,8.10
2018-11-23T23:53:41.165Z,8.10
2018-11-23T23:56:10.372Z,8.10
2018-11-23T23:58:39.436Z,8.10
